Time;durP1;ratioP1;P1;durP2;ratioP2;P2;SDS_P1;SDS_P2;PMS_P1;PMS_P2;Temp;Humidity;BMP_temperature;BMP_pressure;BME280_temperature;BME280_humidity;BME280_pressure;Samples;Min_cycle;Max_cycle;Signal;HPM_P1;HPM_P2
2022/07/03 00:01:21;;;;;;;1.73;0.90;;;22.80;58.30;;;;;;6038471;23;86898;-87
2022/07/03 00:03:46;;;;;;;1.88;1.23;;;22.80;58.80;;;;;;6039602;23;85599;-87
2022/07/03 00:06:17;;;;;;;2.20;1.02;;;22.80;58.20;;;;;;6039179;23;86324;-87
2022/07/03 00:08:43;;;;;;;1.20;0.85;;;22.80;58.20;;;;;;6037974;23;86568;-88
2022/07/03 00:11:09;;;;;;;1.23;1.00;;;22.80;58.10;;;;;;6037137;23;88804;-87
2022/07/03 00:13:35;;;;;;;1.15;1.00;;;22.80;58.00;;;;;;6036573;23;86607;-89
2022/07/03 00:16:01;;;;;;;1.58;0.93;;;22.80;58.00;;;;;;6037308;23;86074;-87
2022/07/03 00:18:27;;;;;;;1.88;1.10;;;22.80;58.10;;;;;;6036035;23;89718;-89
2022/07/03 00:21:04;;;;;;;1.15;0.90;;;22.80;58.20;;;;;;6037908;23;86106;-88
2022/07/03 00:23:40;;;;;;;2.58;1.10;;;22.80;58.00;;;;;;6038259;23;85779;-88
2022/07/03 00:26:07;;;;;;;1.63;1.10;;;22.80;58.10;;;;;;6037656;23;85536;-88
2022/07/03 00:28:33;;;;;;;1.85;1.60;;;22.80;58.10;;;;;;6036450;23;89589;-88
2022/07/03 00:30:59;;;;;;;2.05;0.95;;;22.80;58.00;;;;;;6037325;23;87634;-88
2022/07/03 00:33:27;;;;;;;1.27;0.90;;;22.80;58.00;;;;;;6038952;23;85647;-89
2022/07/03 00:36:03;;;;;;;0.90;0.77;;;22.80;58.20;;;;;;6034929;23;86578;-90
2022/07/03 00:38:28;;;;;;;1.35;1.10;;;22.80;58.20;;;;;;6038745;23;86335;-89
2022/07/03 00:40:54;;;;;;;1.10;0.98;;;22.80;58.00;;;;;;6036480;23;88522;-87
2022/07/03 00:43:21;;;;;;;2.10;1.05;;;22.80;58.10;;;;;;6037705;23;86022;-89
2022/07/03 00:45:48;;;;;;;1.15;0.90;;;22.80;58.00;;;;;;6037123;23;86531;-88
2022/07/03 00:48:16;;;;;;;1.13;0.90;;;22.80;58.00;;;;;;6036073;23;89423;-86
2022/07/03 00:50:47;;;;;;;1.33;1.10;;;22.80;58.00;;;;;;6039872;23;85538;-88
2022/07/03 00:53:17;;;;;;;0.95;0.90;;;22.80;58.00;;;;;;6036686;23;85994;-89
2022/07/03 00:55:46;;;;;;;2.15;1.00;;;22.80;58.00;;;;;;6036170;23;86175;-88
2022/07/03 00:58:17;;;;;;;1.58;1.10;;;22.80;58.20;;;;;;6035172;23;89109;-88
2022/07/03 01:00:45;;;;;;;1.30;0.93;;;22.80;58.10;;;;;;6035913;23;89175;-87
2022/07/03 01:03:26;;;;;;;1.38;0.73;;;22.80;58.00;;;;;;6036090;23;86127;-87
2022/07/03 01:05:57;;;;;;;1.15;0.85;;;22.80;58.20;;;;;;6037098;23;86408;-87
2022/07/03 01:08:36;;;;;;;1.30;0.93;;;22.80;58.10;;;;;;6035792;23;89291;-88
2022/07/03 01:11:34;;;;;;;1.23;0.98;;;22.70;58.00;;;;;;6036126;23;88923;-87
2022/07/03 01:14:15;;;;;;;1.20;0.90;;;22.80;58.10;;;;;;6037311;23;86096;-87
2022/07/03 01:17:03;;;;;;;1.30;0.80;;;22.80;58.00;;;;;;6038540;23;85471;-87
2022/07/03 01:19:31;;;;;;;1.02;0.93;;;22.70;58.10;;;;;;6038362;23;86541;-86
2022/07/03 01:22:33;;;;;;;1.40;1.13;;;22.70;58.10;;;;;;6036541;23;87864;-88
2022/07/03 01:25:24;;;;;;;1.63;0.93;;;22.70;58.10;;;;;;6036175;23;86019;-88
2022/07/03 01:27:57;;;;;;;1.30;0.88;;;22.70;58.10;;;;;;6038184;23;86320;-87
2022/07/03 01:30:23;;;;;;;1.75;0.82;;;22.70;58.00;;;;;;6036350;23;88368;-87
2022/07/03 01:33:07;;;;;;;1.55;0.90;;;22.80;58.20;;;;;;6036167;23;89075;-87
2022/07/03 01:35:40;;;;;;;1.55;0.90;;;22.70;58.20;;;;;;6036777;23;85862;-87
2022/07/03 01:38:12;;;;;;;1.10;0.95;;;22.70;58.10;;;;;;6037734;23;85759;-87
2022/07/03 01:40:42;;;;;;;1.38;0.85;;;22.70;58.10;;;;;;6038057;23;86750;-87
2022/07/03 01:43:12;;;;;;;1.13;0.98;;;22.80;58.30;;;;;;6035965;23;89059;-87
2022/07/03 01:45:49;;;;;;;1.30;0.95;;;22.70;58.20;;;;;;6036615;23;85750;-87
2022/07/03 01:48:15;;;;;;;1.42;1.08;;;22.70;58.10;;;;;;6039159;23;86449;-88
2022/07/03 01:50:42;;;;;;;1.10;0.95;;;22.70;58.10;;;;;;6035186;23;89393;-87
2022/07/03 01:53:14;;;;;;;1.23;1.00;;;22.70;58.20;;;;;;6036385;23;88371;-87
2022/07/03 01:55:42;;;;;;;1.58;0.98;;;22.70;58.20;;;;;;6036648;23;86534;-86
2022/07/03 01:58:09;;;;;;;1.60;1.00;;;22.70;58.20;;;;;;6037500;23;86027;-87
2022/07/03 02:00:50;;;;;;;0.90;0.80;;;22.80;58.20;;;;;;6036719;23;89247;-88
2022/07/03 02:03:27;;;;;;;1.08;0.90;;;22.70;58.20;;;;;;6036427;23;88558;-86
2022/07/03 02:06:23;;;;;;;1.65;1.10;;;22.70;58.30;;;;;;6036920;23;86284;-88
2022/07/03 02:09:00;;;;;;;1.95;1.00;;;22.70;58.30;;;;;;6019393;23;85494;-86
2022/07/03 02:11:28;;;;;;;1.13;0.80;;;22.70;58.10;;;;;;6037458;23;90631;-88
2022/07/03 02:14:13;;;;;;;1.45;1.00;;;22.70;58.00;;;;;;6038570;23;86429;-87
2022/07/03 02:17:04;;;;;;;1.00;0.90;;;22.70;58.00;;;;;;6037248;23;85521;-89
2022/07/03 02:19:53;;;;;;;1.35;0.90;;;22.70;58.10;;;;;;6036337;23;86407;-89
2022/07/03 02:22:22;;;;;;;3.53;1.20;;;22.70;58.10;;;;;;6036897;23;89043;-89
2022/07/03 02:24:48;;;;;;;;;;;22.70;58.00;;;;;;6038917;23;85898;-86
2022/07/03 02:27:21;;;;;;;2.78;1.00;;;22.70;58.10;;;;;;6038383;23;85987;-88
2022/07/03 02:29:54;;;;;;;1.08;0.88;;;22.70;58.10;;;;;;6036998;23;86015;-89
2022/07/03 02:32:43;;;;;;;1.00;0.90;;;22.70;58.00;;;;;;6038087;23;86804;-88
2022/07/03 02:35:17;;;;;;;1.08;0.95;;;22.70;58.00;;;;;;6037627;23;88015;-87
2022/07/03 02:37:56;;;;;;;1.88;0.98;;;22.70;58.00;;;;;;6038693;23;86254;-87
2022/07/03 02:40:32;;;;;;;1.07;0.97;;;22.70;58.10;;;;;;6037715;23;86155;-88
2022/07/03 02:43:01;;;;;;;1.02;0.80;;;22.70;58.00;;;;;;6040080;23;86836;-90
2022/07/03 02:45:38;;;;;;;2.03;1.13;;;22.70;58.10;;;;;;6036849;23;88793;-87
2022/07/03 02:48:12;;;;;;;1.23;0.80;;;22.70;58.10;;;;;;6037539;23;85846;-89
2022/07/03 02:50:41;;;;;;;1.75;1.27;;;22.70;58.30;;;;;;6038795;23;85800;-89
2022/07/03 02:53:19;;;;;;;1.42;1.00;;;22.70;58.10;;;;;;6037253;23;89388;-88
2022/07/03 02:55:46;;;;;;;1.52;0.93;;;22.70;57.90;;;;;;6036747;23;89147;-88
2022/07/03 02:58:21;;;;;;;1.20;0.93;;;22.70;58.00;;;;;;6039545;23;86005;-89
2022/07/03 03:01:10;;;;;;;1.33;0.90;;;22.70;58.00;;;;;;6037466;23;86566;-89
2022/07/03 03:03:43;;;;;;;1.20;0.90;;;22.70;58.00;;;;;;6037941;23;89082;-88
2022/07/03 03:06:21;;;;;;;0.85;0.80;;;22.70;58.30;;;;;;6038694;23;86034;-88
2022/07/03 03:08:50;;;;;;;1.30;0.80;;;22.70;58.00;;;;;;6037560;23;87084;-89
2022/07/03 03:11:47;;;;;;;1.25;1.10;;;22.70;58.10;;;;;;6039189;23;86099;-88
2022/07/03 03:14:15;;;;;;;1.40;0.90;;;22.70;58.00;;;;;;6038052;23;89243;-88
2022/07/03 03:16:52;;;;;;;1.42;0.80;;;22.70;58.00;;;;;;6039099;23;88508;-88
2022/07/03 03:19:22;;;;;;;0.88;0.88;;;22.70;58.70;;;;;;6037015;23;85831;-88
2022/07/03 03:22:09;;;;;;;1.23;0.80;;;22.70;58.00;;;;;;6037868;23;85679;-88
2022/07/03 03:24:35;;;;;;;1.77;1.10;;;22.70;58.00;;;;;;6014875;23;88206;-88
2022/07/03 03:27:19;;;;;;;0.80;0.80;;;22.70;57.90;;;;;;6036632;23;87901;-88
2022/07/03 03:29:44;;;;;;;1.20;0.93;;;22.70;58.00;;;;;;6040174;23;86253;-89
2022/07/03 03:32:11;;;;;;;0.82;0.82;;;22.70;58.10;;;;;;6037150;23;86361;-89
2022/07/03 03:34:38;;;;;;;2.17;0.80;;;22.70;58.00;;;;;;6035778;23;89282;-89
2022/07/03 03:37:05;;;;;;;1.10;1.00;;;22.70;58.10;;;;;;6036813;23;86674;-89
2022/07/03 03:39:32;;;;;;;0.77;0.73;;;22.60;58.20;;;;;;6037702;23;85681;-89
2022/07/03 03:42:00;;;;;;;1.05;0.88;;;22.60;58.10;;;;;;6037494;23;86606;-89
2022/07/03 03:44:26;;;;;;;1.83;0.90;;;22.60;58.00;;;;;;6037901;23;89171;-87
2022/07/03 03:46:52;;;;;;;0.80;0.80;;;22.60;58.10;;;;;;6035454;23;87219;-87
2022/07/03 03:49:18;;;;;;;1.42;1.10;;;22.70;58.10;;;;;;6036349;23;86948;-88
2022/07/03 03:51:44;;;;;;;0.85;0.77;;;22.60;58.10;;;;;;6036485;23;85615;-88
2022/07/03 03:54:09;;;;;;;2.10;1.00;;;22.60;58.10;;;;;;6038384;23;87239;-88
2022/07/03 03:56:35;;;;;;;1.63;1.15;;;22.60;58.10;;;;;;6036598;23;88694;-88
2022/07/03 03:59:01;;;;;;;1.00;0.90;;;22.60;58.10;;;;;;6036371;23;85802;-90
2022/07/03 04:01:26;;;;;;;1.95;0.80;;;22.60;58.20;;;;;;6038123;23;86083;-87
2022/07/03 04:03:59;;;;;;;1.58;0.82;;;22.60;58.10;;;;;;6037011;23;90034;-89
2022/07/03 04:06:25;;;;;;;1.95;1.00;;;22.60;58.20;;;;;;6037711;23;88558;-88
2022/07/03 04:08:51;;;;;;;1.48;0.93;;;22.60;58.10;;;;;;6036792;23;86161;-88
2022/07/03 04:11:17;;;;;;;1.90;0.85;;;22.60;58.10;;;;;;6039720;23;85479;-88
2022/07/03 04:13:42;;;;;;;1.08;0.70;;;22.60;58.10;;;;;;6039425;23;86513;-89
2022/07/03 04:16:08;;;;;;;1.15;1.00;;;22.60;58.10;;;;;;6036080;23;89017;-87
2022/07/03 04:18:34;;;;;;;1.52;1.05;;;22.70;58.20;;;;;;6039245;23;85532;-89
2022/07/03 04:21:00;;;;;;;2.15;0.80;;;22.60;58.10;;;;;;6037012;23;86026;-88
2022/07/03 04:23:26;;;;;;;1.60;1.15;;;22.60;58.00;;;;;;6036100;23;89789;-87
2022/07/03 04:25:51;;;;;;;1.40;0.90;;;22.60;58.10;;;;;;6036507;23;89185;-86
2022/07/03 04:28:17;;;;;;;0.88;0.80;;;22.60;58.00;;;;;;6036629;23;86499;-88
2022/07/03 04:30:43;;;;;;;1.05;0.90;;;22.70;58.10;;;;;;6039281;23;86231;-87
2022/07/03 04:33:08;;;;;;;2.22;1.00;;;22.60;58.10;;;;;;6039429;23;85947;-88
2022/07/03 04:35:34;;;;;;;1.05;0.93;;;22.70;58.10;;;;;;6037923;23;87073;-87
2022/07/03 04:37:59;;;;;;;0.95;0.77;;;22.60;58.20;;;;;;6036777;23;86342;-87
2022/07/03 04:40:25;;;;;;;1.13;0.90;;;22.70;58.40;;;;;;6036429;23;85823;-87
2022/07/03 04:42:51;;;;;;;1.23;0.82;;;22.70;58.20;;;;;;6035832;23;87885;-86
2022/07/03 04:45:17;;;;;;;0.85;0.80;;;22.70;58.40;;;;;;6038728;23;86320;-87
2022/07/03 04:48:00;;;;;;;1.00;0.90;;;22.60;58.30;;;;;;6039086;23;86012;-87
2022/07/03 04:50:25;;;;;;;0.80;0.80;;;22.70;58.50;;;;;;6036154;23;85955;-86
2022/07/03 04:52:51;;;;;;;0.85;0.85;;;22.60;58.20;;;;;;6034924;23;88724;-86
2022/07/03 04:55:16;;;;;;;0.88;0.77;;;22.60;58.30;;;;;;6036661;23;88689;-87
2022/07/03 04:57:42;;;;;;;1.73;1.15;;;22.70;58.30;;;;;;6038217;23;86387;-87
2022/07/03 05:00:08;;;;;;;1.45;0.88;;;22.70;58.30;;;;;;6036802;23;86114;-87
2022/07/03 05:02:34;;;;;;;0.85;0.80;;;22.70;58.30;;;;;;6036157;23;89694;-88
2022/07/03 05:05:00;;;;;;;1.05;0.95;;;22.70;58.20;;;;;;6037226;23;88543;-86
2022/07/03 05:07:26;;;;;;;0.90;0.73;;;22.70;58.10;;;;;;6037581;23;86222;-87
2022/07/03 05:09:51;;;;;;;1.05;0.95;;;22.70;58.00;;;;;;6036483;23;85790;-85
2022/07/03 05:12:17;;;;;;;0.75;0.70;;;22.70;58.20;;;;;;6038534;23;86566;-88
2022/07/03 05:14:43;;;;;;;0.70;0.70;;;22.70;58.00;;;;;;6036287;23;88562;-86
2022/07/03 05:17:09;;;;;;;0.93;0.85;;;22.70;57.90;;;;;;6039410;23;85767;-87
2022/07/03 05:19:37;;;;;;;0.93;0.82;;;22.70;57.90;;;;;;6037658;23;86156;-85
2022/07/03 05:22:03;;;;;;;0.98;0.80;;;22.70;57.90;;;;;;6038314;23;88299;-86
2022/07/03 05:24:29;;;;;;;1.10;1.00;;;22.70;58.00;;;;;;6039104;23;88266;-86
2022/07/03 05:27:00;;;;;;;0.77;0.68;;;22.70;58.00;;;;;;6040736;23;86361;-87
2022/07/03 05:29:25;;;;;;;0.75;0.75;;;22.70;58.20;;;;;;6037833;23;86407;-87
2022/07/03 05:31:51;;;;;;;1.20;0.82;;;22.80;58.20;;;;;;6037665;23;88698;-87
2022/07/03 05:34:17;;;;;;;0.93;0.82;;;22.70;58.20;;;;;;6038204;23;88826;-86
2022/07/03 05:36:42;;;;;;;1.45;0.80;;;22.70;58.00;;;;;;6036820;23;86365;-86
2022/07/03 05:41:52;;;;;;;1.13;0.75;;;22.80;58.10;;;;;;6039781;23;85998;-86
2022/07/03 05:44:18;;;;;;;0.80;0.70;;;22.80;58.90;;;;;;6037225;23;88821;-87
2022/07/03 05:46:43;;;;;;;0.65;0.63;;;22.80;58.40;;;;;;6038221;23;85565;-86
2022/07/03 05:49:09;;;;;;;1.25;0.88;;;22.80;58.50;;;;;;6037564;23;86289;-87
2022/07/03 05:51:35;;;;;;;0.82;0.82;;;22.80;58.40;;;;;;6037970;23;88181;-88
2022/07/03 05:54:00;;;;;;;0.80;0.77;;;22.80;58.40;;;;;;6037874;23;88880;-87
2022/07/03 05:56:26;;;;;;;4.43;1.17;;;22.80;58.40;;;;;;6037561;23;85802;-91
2022/07/03 05:58:51;;;;;;;2.55;1.25;;;22.80;57.60;;;;;;6038994;23;86420;-87
2022/07/03 06:01:17;;;;;;;3.67;1.25;;;22.80;57.50;;;;;;6043153;23;87329;-88
2022/07/03 06:03:47;;;;;;;2.50;1.27;;;22.80;57.20;;;;;;6039015;23;88691;-84
2022/07/03 06:06:13;;;;;;;5.63;1.40;;;22.80;56.60;;;;;;6040528;23;85644;-89
2022/07/03 06:08:39;;;;;;;4.63;1.55;;;22.70;57.30;;;;;;6042532;23;85465;-91
2022/07/03 06:11:04;;;;;;;5.97;1.40;;;22.70;56.00;;;;;;6041544;23;87508;-93
2022/07/03 06:13:30;;;;;;;3.72;1.20;;;22.70;55.90;;;;;;6040399;23;88630;-89
2022/07/03 06:15:55;;;;;;;3.08;1.40;;;22.70;55.70;;;;;;6042227;23;85883;-90
2022/07/03 06:18:21;;;;;;;4.93;1.20;;;22.70;55.50;;;;;;6042230;23;86028;-91
2022/07/03 06:20:46;;;;;;;6.03;1.15;;;22.70;55.10;;;;;;6044085;23;87405;-91
2022/07/03 06:23:12;;;;;;;5.03;1.42;;;22.70;55.30;;;;;;6040881;23;85546;-92
2022/07/03 06:25:37;;;;;;;4.43;1.23;;;22.70;54.90;;;;;;6038293;23;85923;-90
2022/07/03 06:28:03;;;;;;;7.22;1.20;;;22.70;55.10;;;;;;6038716;23;85697;-87
2022/07/03 06:30:29;;;;;;;2.22;0.88;;;22.70;55.20;;;;;;6041841;23;86582;-90
2022/07/03 06:32:54;;;;;;;3.40;1.10;;;22.70;55.30;;;;;;6040239;23;88795;-87
2022/07/03 06:35:20;;;;;;;7.38;0.95;;;22.70;55.20;;;;;;6039679;23;86231;-87
2022/07/03 06:37:46;;;;;;;8.52;1.38;;;22.70;55.60;;;;;;6039751;23;86182;-90
2022/07/03 06:40:11;;;;;;;10.73;1.17;;;22.70;55.40;;;;;;6039008;23;86834;-84
2022/07/03 06:42:37;;;;;;;6.15;1.55;;;22.70;55.70;;;;;;6035313;23;86224;-85
2022/07/03 06:45:03;;;;;;;5.70;1.30;;;22.70;55.30;;;;;;6038838;23;86102;-84
2022/07/03 06:47:46;;;;;;;5.70;1.20;;;22.70;55.20;;;;;;6038369;23;86737;-84
2022/07/03 06:50:12;;;;;;;4.78;1.65;;;22.70;55.10;;;;;;6037472;23;85982;-86
2022/07/03 06:52:38;;;;;;;3.03;1.00;;;22.70;55.20;;;;;;6037017;23;88657;-85
2022/07/03 06:55:04;;;;;;;4.25;1.30;;;22.70;55.20;;;;;;6037824;23;85620;-85
2022/07/03 06:57:30;;;;;;;4.47;1.08;;;22.70;55.30;;;;;;6037649;23;86182;-85
2022/07/03 06:59:55;;;;;;;3.28;1.05;;;22.70;55.40;;;;;;6038955;23;86245;-84
2022/07/03 07:02:21;;;;;;;3.22;0.90;;;22.70;55.70;;;;;;6038454;23;85620;-84
2022/07/03 07:04:47;;;;;;;2.08;0.90;;;22.70;55.60;;;;;;6039051;23;85955;-85
2022/07/03 07:07:12;;;;;;;3.60;0.90;;;22.70;55.60;;;;;;6035806;23;86373;-86
2022/07/03 07:09:38;;;;;;;3.10;0.93;;;22.70;55.50;;;;;;6031568;23;89139;-86
2022/07/03 07:12:04;;;;;;;2.72;1.02;;;22.70;55.60;;;;;;6035837;23;86349;-86
2022/07/03 07:14:30;;;;;;;3.80;1.10;;;22.70;55.50;;;;;;6036542;23;86590;-90
2022/07/03 07:16:56;;;;;;;3.63;1.00;;;22.70;55.20;;;;;;6032892;23;85938;-87
2022/07/03 07:19:22;;;;;;;3.08;0.90;;;22.70;55.40;;;;;;6037956;23;86459;-85
2022/07/03 07:21:47;;;;;;;3.30;0.90;;;22.70;55.60;;;;;;6038697;23;88592;-92
2022/07/03 07:24:30;;;;;;;3.20;0.82;;;22.70;55.50;;;;;;5984200;23;86030;-87
2022/07/03 07:26:56;;;;;;;3.65;1.15;;;22.70;56.00;;;;;;6073225;23;86070;-87
2022/07/03 07:29:22;;;;;;;57.45;8.45;;;22.80;56.10;;;;;;6042874;23;88123;-88
2022/07/03 07:31:47;;;;;;;44.00;9.45;;;22.70;56.60;;;;;;6071032;23;86058;-86
2022/07/03 07:34:13;;;;;;;38.60;6.53;;;22.80;56.60;;;;;;6070458;23;86051;-90
2022/07/03 07:36:41;;;;;;;35.55;6.05;;;22.80;56.40;;;;;;6066485;23;85488;-84
2022/07/03 07:39:07;;;;;;;37.78;6.80;;;22.80;56.40;;;;;;6066827;23;89019;-91
2022/07/03 07:41:32;;;;;;;43.60;7.68;;;22.80;56.60;;;;;;6067999;23;86263;-88
2022/07/03 07:43:58;;;;;;;28.00;5.25;;;22.80;56.40;;;;;;6068305;23;85509;-86
2022/07/03 07:46:24;;;;;;;34.03;6.15;;;22.80;56.40;;;;;;6068567;23;85930;-88
2022/07/03 07:48:50;;;;;;;17.38;4.15;;;22.80;56.80;;;;;;6067672;23;86503;-86
2022/07/03 07:51:16;;;;;;;8.25;2.33;;;22.80;56.90;;;;;;6067334;23;86062;-85
2022/07/03 07:53:41;;;;;;;10.50;2.60;;;22.80;56.90;;;;;;6068863;23;85913;-90
2022/07/03 07:56:07;;;;;;;11.68;2.25;;;22.80;57.10;;;;;;6067306;23;86227;-91
2022/07/03 07:58:32;;;;;;;7.57;1.88;;;22.80;57.00;;;;;;6069478;23;86418;-85
2022/07/03 08:06:44;;;;;;;6.13;2.10;;;22.80;57.20;;;;;;6068427;23;85840;-85
2022/07/03 08:09:09;;;;;;;2.90;1.25;;;22.80;57.40;;;;;;6068958;23;87221;-90
2022/07/03 08:11:35;;;;;;;7.25;1.63;;;22.80;57.70;;;;;;6070283;23;86326;-91
2022/07/03 08:14:01;;;;;;;7.80;1.33;;;22.80;57.80;;;;;;6069347;23;86047;-89
2022/07/03 08:16:35;;;;;;;5.75;1.42;;;22.80;57.80;;;;;;6068948;23;86298;-87
2022/07/03 08:19:01;;;;;;;6.00;1.80;;;22.80;57.70;;;;;;6065953;23;89973;-90
2022/07/03 08:21:27;;;;;;;4.32;1.35;;;22.80;58.00;;;;;;6066060;23;85480;-87
2022/07/03 08:23:53;;;;;;;7.18;1.25;;;22.80;57.90;;;;;;6067800;23;86340;-84
2022/07/03 08:26:18;;;;;;;5.57;1.60;;;22.80;57.90;;;;;;6063630;23;85696;-85
2022/07/03 08:28:44;;;;;;;5.82;1.20;;;22.80;58.00;;;;;;6065016;23;89140;-89
2022/07/03 08:31:10;;;;;;;6.55;1.33;;;22.80;58.00;;;;;;6063415;23;89085;-86
2022/07/03 08:33:36;;;;;;;3.58;1.45;;;22.80;57.90;;;;;;6066371;23;86137;-90
2022/07/03 08:36:03;;;;;;;5.35;1.25;;;22.80;58.10;;;;;;6072823;23;85493;-91
2022/07/03 08:38:34;;;;;;;3.40;1.10;;;22.80;58.40;;;;;;6071300;23;88247;-90
2022/07/03 08:41:01;;;;;;;3.40;1.25;;;22.80;58.40;;;;;;6067645;23;87773;-92
2022/07/03 08:43:26;;;;;;;7.35;1.10;;;22.80;58.30;;;;;;6063393;23;85961;-92
2022/07/03 08:45:54;;;;;;;1.85;1.10;;;22.80;58.70;;;;;;6068984;23;85955;-92
2022/07/03 08:48:22;;;;;;;4.75;1.20;;;22.80;58.50;;;;;;6070100;23;86677;-90
2022/07/03 08:50:56;;;;;;;2.67;1.00;;;22.80;58.90;;;;;;6065361;23;88281;-92
2022/07/03 08:53:23;;;;;;;4.80;1.10;;;22.80;59.10;;;;;;6068481;23;86061;-90
2022/07/03 08:55:49;;;;;;;3.95;0.90;;;22.80;59.00;;;;;;6069371;23;85457;-89
2022/07/03 08:58:15;;;;;;;3.35;1.15;;;22.80;59.30;;;;;;6068426;23;89105;-90
2022/07/03 09:00:41;;;;;;;6.40;1.20;;;22.80;59.20;;;;;;6067427;23;88884;-88
2022/07/03 09:03:11;;;;;;;3.55;1.38;;;22.80;58.80;;;;;;6069105;23;86019;-88
2022/07/03 09:05:38;;;;;;;4.35;1.00;;;22.80;59.00;;;;;;6069180;23;85814;-89
2022/07/03 09:08:07;;;;;;;4.30;1.52;;;22.80;58.40;;;;;;6066746;23;89601;-89
2022/07/03 09:10:33;;;;;;;8.55;1.40;;;22.80;58.70;;;;;;6067169;23;88585;-91
2022/07/03 09:12:59;;;;;;;5.85;1.02;;;22.80;58.70;;;;;;6067530;23;86276;-88
2022/07/03 09:15:25;;;;;;;12.85;2.95;;;22.80;58.70;;;;;;6069957;23;86100;-86
2022/07/03 09:18:39;;;;;;;12.40;2.30;;;22.80;58.60;;;;;;6069221;23;86630;-91
2022/07/03 09:21:05;;;;;;;13.65;2.63;;;22.90;57.70;;;;;;6040899;23;86183;-88
2022/07/03 09:23:44;;;;;;;37.75;9.68;;;22.90;58.00;;;;;;6068247;23;86155;-88
2022/07/03 09:26:17;;;;;;;46.22;12.50;;;22.90;58.40;;;;;;6069383;23;85730;-88
2022/07/03 09:28:52;;;;;;;48.25;15.90;;;22.90;58.60;;;;;;6062500;23;89858;-84
2022/07/03 09:31:22;;;;;;;29.85;9.93;;;22.80;59.00;;;;;;6063483;23;88935;-84
2022/07/03 09:33:57;;;;;;;32.42;9.38;;;22.80;58.60;;;;;;6061595;23;85795;-86
2022/07/03 09:36:46;;;;;;;24.05;9.13;;;22.90;58.80;;;;;;6064004;23;86021;-86
2022/07/03 09:39:25;;;;;;;;;;;22.90;58.90;;;;;;6067114;23;86458;-85
2022/07/03 09:41:57;;;;;;;24.13;6.95;;;22.80;58.90;;;;;;6068538;23;85959;-84
2022/07/03 09:44:37;;;;;;;20.65;6.60;;;22.90;59.10;;;;;;6066499;23;85956;-86
2022/07/03 09:47:18;;;;;;;15.57;5.50;;;22.80;59.20;;;;;;6067647;23;85851;-85
2022/07/03 09:49:46;;;;;;;10.88;4.10;;;22.80;59.30;;;;;;6067871;23;87351;-84
2022/07/03 09:52:34;;;;;;;25.65;6.60;;;22.80;59.20;;;;;;6068038;23;86657;-87
2022/07/03 09:55:12;;;;;;;54.10;13.15;;;22.80;59.70;;;;;;6064244;23;85518;-85
2022/07/03 09:57:38;;;;;;;232.85;54.55;;;22.80;59.50;;;;;;6066296;23;86021;-85
2022/07/03 10:00:20;;;;;;;83.43;20.98;;;22.90;59.70;;;;;;6064632;23;87714;-85
2022/07/03 10:03:04;;;;;;;108.20;24.20;;;22.90;59.60;;;;;;6064945;23;85942;-85
2022/07/03 10:05:34;;;;;;;84.20;19.58;;;22.90;59.70;;;;;;6065174;23;85591;-87
2022/07/03 10:08:06;;;;;;;69.75;16.48;;;22.80;59.90;;;;;;6063044;23;86481;-86
2022/07/03 10:10:36;;;;;;;48.60;13.02;;;22.90;59.70;;;;;;6064698;23;86200;-86
2022/07/03 10:13:03;;;;;;;50.95;12.32;;;22.90;59.90;;;;;;6064888;23;88013;-87
2022/07/03 10:15:31;;;;;;;29.40;7.10;;;22.90;59.90;;;;;;6063712;23;86243;-88
2022/07/03 10:17:58;;;;;;;23.05;5.63;;;22.90;59.70;;;;;;6067481;23;85876;-86
2022/07/03 10:20:28;;;;;;;15.75;4.72;;;22.90;59.10;;;;;;6066745;23;86543;-86
2022/07/03 10:22:54;;;;;;;10.43;3.42;;;22.90;58.90;;;;;;6065711;23;88776;-86
2022/07/03 10:25:21;;;;;;;4.95;2.10;;;22.90;59.10;;;;;;6067964;23;86093;-88
2022/07/03 10:27:47;;;;;;;4.40;1.58;;;22.90;59.20;;;;;;6066679;23;86030;-86
2022/07/03 10:30:18;;;;;;;8.30;1.80;;;22.90;58.50;;;;;;6066790;23;86182;-87
2022/07/03 10:32:49;;;;;;;12.23;1.42;;;23.00;58.70;;;;;;6065429;23;87891;-85
2022/07/03 10:35:21;;;;;;;6.72;1.73;;;23.00;58.20;;;;;;6068258;23;86071;-87
2022/07/03 10:38:02;;;;;;;6.85;1.70;;;22.90;58.40;;;;;;6070558;23;85834;-86
2022/07/03 10:46:29;;;;;;;4.18;1.30;;;23.00;59.20;;;;;;6067120;23;85941;-86
2022/07/03 10:49:11;;;;;;;4.68;1.50;;;22.90;59.20;;;;;;6063694;23;86170;-87
2022/07/03 10:51:49;;;;;;;6.50;1.55;;;22.90;59.90;;;;;;6063570;23;88888;-86
2022/07/03 10:54:23;;;;;;;5.45;1.65;;;22.90;59.40;;;;;;6063050;23;87777;-87
2022/07/03 10:56:58;;;;;;;4.25;1.30;;;22.90;59.40;;;;;;6063236;23;85912;-85
2022/07/03 10:59:36;;;;;;;5.07;1.83;;;22.90;59.80;;;;;;6063734;23;86825;-86
2022/07/03 11:02:31;;;;;;;4.13;1.58;;;22.90;60.30;;;;;;6064326;23;89960;-87
2022/07/03 11:04:59;;;;;;;4.47;1.42;;;22.90;60.70;;;;;;6064071;23;89066;-87
2022/07/03 11:07:38;;;;;;;4.03;1.40;;;22.90;60.90;;;;;;6063473;23;86350;-86
2022/07/03 11:10:13;;;;;;;10.68;2.22;;;22.90;60.60;;;;;;6065342;23;86177;-86
2022/07/03 11:13:04;;;;;;;5.05;1.83;;;23.00;61.40;;;;;;6064073;23;88625;-86
2022/07/03 11:15:46;;;;;;;13.25;2.47;;;23.00;61.20;;;;;;6064621;23;88188;-87
2022/07/03 11:18:34;;;;;;;7.32;1.75;;;23.00;61.00;;;;;;6066590;23;85699;-86
2022/07/03 11:21:26;;;;;;;6.63;2.00;;;23.00;59.10;;;;;;6065788;23;85670;-87
2022/07/03 11:24:16;;;;;;;7.85;1.95;;;23.00;59.40;;;;;;6064890;23;86439;-84
2022/07/03 11:26:42;;;;;;;7.60;1.80;;;23.00;59.70;;;;;;6063494;23;88606;-85
2022/07/03 11:29:25;;;;;;;9.20;2.30;;;23.00;60.10;;;;;;6064249;23;86020;-86
2022/07/03 11:31:50;;;;;;;7.85;2.17;;;23.00;60.40;;;;;;6063821;23;86023;-85
2022/07/03 11:34:19;;;;;;;6.43;1.88;;;23.00;60.10;;;;;;6065834;23;87337;-86
2022/07/03 11:36:45;;;;;;;6.40;1.90;;;23.00;60.10;;;;;;6063874;23;88734;-84
2022/07/03 11:39:19;;;;;;;5.60;1.85;;;23.00;60.20;;;;;;6064414;23;85981;-91
2022/07/03 11:41:46;;;;;;;4.15;1.88;;;23.00;60.50;;;;;;6069397;23;86221;-91
2022/07/03 11:44:20;;;;;;;6.70;1.98;;;23.00;60.50;;;;;;6068663;23;89582;-85
2022/07/03 11:46:50;;;;;;;10.27;2.33;;;23.00;60.20;;;;;;6066281;23;89518;-88
2022/07/03 11:49:22;;;;;;;4.18;2.03;;;23.00;60.10;;;;;;6068257;23;85553;-86
2022/07/03 11:52:04;;;;;;;7.05;2.00;;;23.00;59.80;;;;;;6063497;23;85669;-83
2022/07/03 11:54:50;;;;;;;14.02;2.63;;;23.00;59.80;;;;;;6065370;23;89367;-83
2022/07/03 11:57:16;;;;;;;5.00;1.98;;;22.90;59.80;;;;;;6064223;23;87806;-86
2022/07/03 11:59:42;;;;;;;6.03;1.40;;;22.90;59.60;;;;;;6066391;23;85525;-82
2022/07/03 12:02:07;;;;;;;5.15;1.65;;;22.90;59.80;;;;;;6065016;23;85989;-84
2022/07/03 12:04:33;;;;;;;4.18;1.80;;;22.90;59.80;;;;;;6065709;23;86645;-85
2022/07/03 12:07:00;;;;;;;5.00;1.45;;;22.90;59.70;;;;;;6066603;23;86542;-87
2022/07/03 12:09:30;;;;;;;3.50;1.70;;;22.90;59.80;;;;;;6067423;23;85658;-83
2022/07/03 12:12:11;;;;;;;7.82;1.90;;;22.90;59.70;;;;;;6067899;23;85745;-83
2022/07/03 12:14:38;;;;;;;5.60;1.67;;;22.90;59.70;;;;;;6067465;23;86068;-83
2022/07/03 12:17:15;;;;;;;7.97;1.50;;;22.90;59.70;;;;;;6067928;23;86693;-85
2022/07/03 12:19:48;;;;;;;3.05;1.58;;;22.90;59.70;;;;;;6067805;23;85922;-84
2022/07/03 12:22:31;;;;;;;7.40;1.90;;;22.90;59.60;;;;;;6064560;23;85608;-83
2022/07/03 12:25:06;;;;;;;2.92;1.63;;;22.90;59.50;;;;;;6067451;23;86383;-87
2022/07/03 12:27:37;;;;;;;3.25;1.60;;;22.90;59.50;;;;;;6067985;23;86318;-83
2022/07/03 12:30:05;;;;;;;5.05;2.28;;;22.90;59.40;;;;;;6067918;23;85902;-89
2022/07/03 12:32:31;;;;;;;2.90;1.27;;;23.00;59.50;;;;;;6067363;23;85473;-86
2022/07/03 12:35:04;;;;;;;4.43;1.55;;;22.90;59.40;;;;;;6067073;23;88066;-84
2022/07/03 12:37:45;;;;;;;3.92;1.52;;;22.90;59.50;;;;;;6065957;23;89827;-84
2022/07/03 12:40:13;;;;;;;4.00;1.42;;;22.90;59.50;;;;;;6069602;23;85527;-92
2022/07/03 12:43:08;;;;;;;2.75;1.52;;;22.90;59.30;;;;;;6069774;23;85845;-83
2022/07/03 12:45:34;;;;;;;2.72;1.27;;;22.90;59.40;;;;;;6049627;23;86934;-84
2022/07/03 12:48:08;;;;;;;2.33;1.27;;;22.90;59.30;;;;;;6067458;23;88501;-88
2022/07/03 12:50:48;;;;;;;4.25;1.38;;;22.90;59.50;;;;;;6065497;23;86008;-89
2022/07/03 12:53:30;;;;;;;2.45;1.30;;;22.90;59.50;;;;;;6068854;23;86198;-83
2022/07/03 12:56:01;;;;;;;4.30;1.52;;;22.90;59.60;;;;;;6069608;23;86190;-90
2022/07/03 13:01:30;;;;;;;3.45;1.30;;;22.90;59.40;;;;;;6068759;23;85716;-85
2022/07/03 13:03:56;;;;;;;8.57;1.60;;;22.90;59.90;;;;;;6067857;23;86312;-84
2022/07/03 13:06:23;;;;;;;5.18;1.60;;;22.90;59.20;;;;;;6069718;23;86213;-87
2022/07/03 13:09:00;;;;;;;3.30;1.40;;;22.90;59.40;;;;;;6067187;23;88375;-88
2022/07/03 13:11:33;;;;;;;3.28;1.27;;;22.90;59.40;;;;;;6068552;23;85670;-87
2022/07/03 13:14:14;;;;;;;4.43;1.50;;;22.90;59.20;;;;;;6066507;23;85754;-85
2022/07/03 13:16:46;;;;;;;7.75;1.92;;;22.90;59.10;;;;;;6064683;23;88626;-83
2022/07/03 13:19:19;;;;;;;4.70;1.60;;;23.00;59.30;;;;;;6067791;23;85876;-83
2022/07/03 13:21:46;;;;;;;7.55;1.48;;;23.00;59.00;;;;;;6068406;23;85876;-93